Terminal Aerodrome Forecast
Issued by NWS Pittsburgh, PA

Current Version | Previous Version | Graphics & Text | Print | Product List | Glossary On
Versions: 1 2 3 4 5 6 7 8 9 10 11 12 13 14 15 16 17 18 19 20 21 22 23 24 25 26 27 28 29 30 31 32 33 34 35
928
FTUS41 KPBZ 261443 AAA
TAFPIT
TAF AMD
KPIT 261443Z 2615/2718 27005KT 5SM -SHSN BKN035
      TEMPO 2615/2616 3SM -SN BKN025
     FM261700 24010KT P6SM SCT035
     FM262200 21006KT P6SM SKC
     FM271600 21008KT P6SM VCSH OVC050=

USA.gov is the U.S. government's official web portal to all federal, state and local government web resources and services.